Time;durP1;ratioP1;P1;durP2;ratioP2;P2;SDS_P1;SDS_P2;PMS_P1;PMS_P2;Temp;Humidity;BMP_temperature;BMP_pressure;BME280_temperature;BME280_humidity;BME280_pressure;Samples;Min_cycle;Max_cycle;Signal;HPM_P1;HPM_P2
2022/11/17 00:01:19;;;;;;;24.47;22.57;;;8.50;99.90;;;;;;5073462;28;20447;-76
2022/11/17 00:03:46;;;;;;;23.77;21.90;;;8.50;99.90;;;;;;5072951;28;20520;-77
2022/11/17 00:06:13;;;;;;;24.00;22.13;;;8.50;99.90;;;;;;5073420;28;20535;-78
2022/11/17 00:08:42;;;;;;;25.33;23.30;;;8.50;99.90;;;;;;5073345;28;20439;-77
2022/11/17 00:11:09;;;;;;;22.83;21.27;;;8.50;99.90;;;;;;5073056;28;20457;-77
2022/11/17 00:16:21;;;;;;;24.63;22.53;;;8.60;99.90;;;;;;5073251;28;20998;-77
2022/11/17 00:21:33;;;;;;;21.40;19.80;;;8.60;99.90;;;;;;5073044;28;20455;-77
2022/11/17 00:24:01;;;;;;;23.17;21.43;;;8.60;99.90;;;;;;5073019;28;20447;-78
2022/11/17 00:26:29;;;;;;;20.57;19.37;;;8.60;99.90;;;;;;5072881;28;20447;-78
2022/11/17 00:28:58;;;;;;;19.80;18.60;;;8.60;99.90;;;;;;5072462;28;20470;-77
2022/11/17 00:34:14;;;;;;;19.73;18.43;;;8.50;99.90;;;;;;5073010;28;20581;-77
2022/11/17 00:36:43;;;;;;;19.57;18.23;;;8.50;99.90;;;;;;5073025;28;20485;-76
2022/11/17 00:39:12;;;;;;;19.37;17.63;;;8.60;99.90;;;;;;5072762;28;20482;-77
2022/11/17 00:41:39;;;;;;;19.63;18.33;;;8.70;99.90;;;;;;5073026;28;20443;-77
2022/11/17 00:44:07;;;;;;;20.63;18.47;;;8.80;99.90;;;;;;5073277;28;20546;-77
2022/11/17 00:46:34;;;;;;;18.93;17.83;;;8.80;99.90;;;;;;5076730;28;20439;-78
2022/11/17 00:49:01;;;;;;;21.83;19.90;;;8.90;99.90;;;;;;5089462;28;20439;-79
2022/11/17 00:51:28;;;;;;;21.37;19.87;;;8.80;99.90;;;;;;5089817;28;20443;-78
2022/11/17 00:53:54;;;;;;;22.60;20.90;;;8.80;99.90;;;;;;5087229;28;20443;-78
2022/11/17 00:56:24;;;;;;;23.40;21.50;;;8.80;99.90;;;;;;5091378;28;20550;-78
2022/11/17 00:58:51;;;;;;;22.43;20.87;;;8.80;99.90;;;;;;5094228;28;20547;-79
2022/11/17 01:01:17;;;;;;;24.70;22.80;;;8.80;99.90;;;;;;5080714;28;20455;-78
2022/11/17 01:03:44;;;;;;;23.30;21.80;;;8.80;99.90;;;;;;5073701;28;20439;-78
2022/11/17 01:06:13;;;;;;;22.50;20.90;;;8.80;99.90;;;;;;5072498;28;20786;-77
2022/11/17 01:08:40;;;;;;;22.87;21.37;;;8.80;99.90;;;;;;5072290;28;20450;-76
2022/11/17 01:11:09;;;;;;;24.03;22.17;;;8.80;99.90;;;;;;5072011;28;20960;-75
2022/11/17 01:13:38;;;;;;;25.80;23.70;;;8.80;99.90;;;;;;5071970;28;20448;-76
2022/11/17 01:16:07;;;;;;;23.70;21.80;;;8.80;99.90;;;;;;5071957;28;20458;-75
2022/11/17 01:18:34;;;;;;;25.50;23.53;;;8.90;99.90;;;;;;5071829;28;20479;-76
2022/11/17 01:21:06;;;;;;;25.27;23.47;;;8.80;99.90;;;;;;5071862;28;20832;-76
2022/11/17 01:23:33;;;;;;;24.83;23.23;;;8.90;99.90;;;;;;5071579;28;20479;-76
2022/11/17 01:26:08;;;;;;;22.60;21.23;;;8.80;99.90;;;;;;5071861;28;20477;-75
2022/11/17 01:28:35;;;;;;;24.13;22.53;;;8.80;99.90;;;;;;5071617;28;20470;-75
2022/11/17 01:31:05;;;;;;;23.00;21.50;;;8.80;99.90;;;;;;5071612;28;20447;-75
2022/11/17 01:33:33;;;;;;;22.97;21.67;;;8.90;99.90;;;;;;5071552;28;20526;-76
2022/11/17 01:36:03;;;;;;;23.70;22.00;;;8.90;99.90;;;;;;5071654;28;20439;-76
2022/11/17 01:38:32;;;;;;;24.57;22.87;;;8.90;99.90;;;;;;5071375;28;21025;-75
2022/11/17 01:41:00;;;;;;;23.13;21.37;;;8.90;99.90;;;;;;5070559;28;20447;-75
2022/11/17 01:43:37;;;;;;;22.40;20.80;;;8.90;99.90;;;;;;5071571;28;20458;-75
2022/11/17 01:46:11;;;;;;;23.87;22.27;;;9.00;99.90;;;;;;5071334;28;20443;-76
2022/11/17 01:48:38;;;;;;;24.20;22.30;;;9.10;99.90;;;;;;5071253;28;20439;-75
2022/11/17 01:51:05;;;;;;;22.30;20.90;;;9.10;99.90;;;;;;5071264;28;20458;-75
2022/11/17 01:53:34;;;;;;;22.70;21.40;;;9.20;99.90;;;;;;5071085;28;20458;-76
2022/11/17 01:56:05;;;;;;;24.33;22.70;;;9.20;99.90;;;;;;5070838;28;20483;-76
2022/11/17 01:58:36;;;;;;;24.70;22.80;;;9.20;99.90;;;;;;5071066;28;20510;-76
2022/11/17 02:01:03;;;;;;;22.90;21.33;;;9.30;99.90;;;;;;5071054;28;20458;-76
2022/11/17 02:03:33;;;;;;;22.97;21.40;;;9.30;99.90;;;;;;5071112;28;20451;-76
2022/11/17 02:06:05;;;;;;;23.53;21.83;;;9.40;99.90;;;;;;5070960;28;21012;-76
2022/11/17 02:08:33;;;;;;;23.00;21.30;;;9.40;99.90;;;;;;5070875;28;20453;-76
2022/11/17 02:11:02;;;;;;;21.50;20.10;;;9.40;99.90;;;;;;5070778;28;20454;-76
2022/11/17 02:13:29;;;;;;;22.30;20.60;;;9.40;99.90;;;;;;5070913;28;20489;-76
2022/11/17 02:15:56;;;;;;;21.10;19.63;;;9.40;99.90;;;;;;5071038;28;20451;-76
2022/11/17 02:18:23;;;;;;;20.87;19.23;;;9.30;99.90;;;;;;5070604;28;20478;-76
2022/11/17 02:21:28;;;;;;;20.90;19.50;;;9.30;99.90;;;;;;5070700;28;20824;-75
2022/11/17 02:24:16;;;;;;;20.07;18.67;;;9.30;99.90;;;;;;5070891;28;20454;-76
2022/11/17 02:27:13;;;;;;;19.70;18.60;;;9.20;99.90;;;;;;5070648;28;20448;-77
2022/11/17 02:29:47;;;;;;;20.17;18.67;;;9.30;99.90;;;;;;5070713;28;20471;-77
2022/11/17 02:32:19;;;;;;;19.33;18.10;;;9.20;99.90;;;;;;5070629;28;20944;-77
2022/11/17 02:34:48;;;;;;;19.10;17.90;;;9.20;99.90;;;;;;5070496;28;20443;-76
2022/11/17 02:37:26;;;;;;;19.30;18.10;;;9.20;99.90;;;;;;5070542;28;20936;-76
2022/11/17 02:39:59;;;;;;;20.00;18.00;;;9.10;99.90;;;;;;5070352;28;20486;-76
2022/11/17 02:45:17;;;;;;;19.40;18.10;;;9.10;99.90;;;;;;5070318;28;20784;-76
2022/11/17 02:47:48;;;;;;;19.00;17.50;;;9.00;99.90;;;;;;5070520;28;20443;-76
2022/11/17 02:50:17;;;;;;;18.47;17.37;;;9.00;99.90;;;;;;5070304;28;20814;-76
2022/11/17 02:52:44;;;;;;;20.57;19.20;;;9.00;99.90;;;;;;5070447;28;20967;-76
2022/11/17 02:55:11;;;;;;;20.50;18.97;;;9.00;99.90;;;;;;5070213;28;20474;-76
2022/11/17 02:57:40;;;;;;;17.80;16.90;;;9.00;99.90;;;;;;5070347;28;20446;-77
2022/11/17 03:00:10;;;;;;;18.00;16.80;;;9.00;99.90;;;;;;5070263;28;20447;-77
2022/11/17 03:02:55;;;;;;;18.33;17.00;;;9.10;99.90;;;;;;5070245;28;20443;-76
2022/11/17 03:05:29;;;;;;;18.10;16.90;;;9.10;99.90;;;;;;5070261;28;20454;-77
2022/11/17 03:08:13;;;;;;;17.37;16.37;;;9.20;99.90;;;;;;5070764;28;20948;-77
2022/11/17 03:10:51;;;;;;;17.87;16.53;;;9.20;99.90;;;;;;5070707;28;20866;-77
2022/11/17 03:13:24;;;;;;;17.40;16.40;;;9.30;99.90;;;;;;5071360;28;20443;-77
2022/11/17 03:15:55;;;;;;;17.77;16.67;;;9.50;99.90;;;;;;5088293;28;20433;-77
2022/11/17 03:18:30;;;;;;;16.93;15.97;;;9.50;99.90;;;;;;5088734;28;20506;-78
2022/11/17 03:21:05;;;;;;;17.03;16.03;;;9.60;99.90;;;;;;5085297;28;20496;-78
2022/11/17 03:23:40;;;;;;;16.97;16.00;;;9.70;99.90;;;;;;5083964;28;20446;-78
2022/11/17 03:26:12;;;;;;;17.70;16.80;;;9.80;99.90;;;;;;5081274;28;20439;-77
2022/11/17 03:28:41;;;;;;;25.00;23.50;;;9.80;99.90;;;;;;5074459;28;20451;-78
2022/11/17 03:31:10;;;;;;;27.77;25.70;;;9.80;99.90;;;;;;5071207;28;20451;-76
2022/11/17 03:33:40;;;;;;;27.90;26.43;;;9.60;99.90;;;;;;5069819;28;20451;-75
2022/11/17 03:36:10;;;;;;;26.13;24.60;;;9.50;99.90;;;;;;5070106;28;20453;-74
2022/11/17 03:38:41;;;;;;;25.83;24.50;;;9.50;99.90;;;;;;5069845;28;20905;-74
2022/11/17 03:41:11;;;;;;;26.10;24.60;;;9.50;99.90;;;;;;5069815;28;20447;-75
2022/11/17 03:43:39;;;;;;;27.10;25.30;;;9.50;99.90;;;;;;5069806;28;20443;-77
2022/11/17 03:46:10;;;;;;;25.13;23.67;;;9.50;99.90;;;;;;5069868;28;20456;-76
2022/11/17 03:48:44;;;;;;;25.03;23.63;;;9.60;99.90;;;;;;5069897;28;20446;-77
2022/11/17 03:51:14;;;;;;;24.60;23.10;;;9.60;99.90;;;;;;5069859;28;20445;-77
2022/11/17 03:53:42;;;;;;;24.13;22.83;;;9.60;99.90;;;;;;5070005;28;20443;-76
2022/11/17 03:56:18;;;;;;;24.37;23.07;;;9.70;99.90;;;;;;5069693;28;20501;-76
2022/11/17 03:58:52;;;;;;;30.50;28.90;;;9.70;99.90;;;;;;5069544;28;20474;-75
2022/11/17 04:01:20;;;;;;;36.17;33.97;;;9.70;99.90;;;;;;5069565;28;20442;-74
2022/11/17 04:03:49;;;;;;;35.50;33.50;;;9.70;99.90;;;;;;5071831;28;20945;-75
2022/11/17 04:06:15;;;;;;;34.97;32.97;;;9.70;99.90;;;;;;5073079;28;20447;-75
2022/11/17 04:08:42;;;;;;;36.03;34.03;;;9.70;99.90;;;;;;5073237;28;20443;-76
2022/11/17 04:16:37;;;;;;;35.10;33.20;;;9.80;99.90;;;;;;5041884;28;20434;-80
2022/11/17 04:19:05;;;;;;;33.77;31.77;;;9.90;99.90;;;;;;5073059;28;20490;-80
2022/11/17 04:21:31;;;;;;;33.53;31.73;;;9.90;99.90;;;;;;5072941;28;20447;-80
2022/11/17 04:23:58;;;;;;;34.07;32.20;;;9.90;99.90;;;;;;5073002;28;20454;-83
2022/11/17 04:29:10;;;;;;;34.00;31.90;;;9.90;99.90;;;;;;5072823;28;20438;-78
2022/11/17 04:31:37;;;;;;;35.17;33.17;;;9.90;99.90;;;;;;5072798;28;20810;-77
2022/11/17 04:34:06;;;;;;;36.63;34.70;;;9.90;99.90;;;;;;5072749;28;20787;-76
2022/11/17 04:36:36;;;;;;;34.10;32.30;;;9.80;99.90;;;;;;5072659;28;20495;-76
2022/11/17 04:39:04;;;;;;;33.87;31.97;;;9.90;99.90;;;;;;5072347;28;20483;-77
2022/11/17 04:44:17;;;;;;;34.40;32.53;;;9.90;99.90;;;;;;5072200;28;20507;-75
2022/11/17 04:46:44;;;;;;;34.33;32.50;;;9.90;99.90;;;;;;5072554;28;20450;-74
2022/11/17 04:49:13;;;;;;;34.90;32.90;;;9.90;99.90;;;;;;5072531;28;20446;-75
2022/11/17 04:51:40;;;;;;;34.10;32.27;;;10.00;99.90;;;;;;5072426;28;20459;-74
2022/11/17 04:54:09;;;;;;;33.40;31.53;;;10.00;99.90;;;;;;5072205;28;20447;-75
2022/11/17 04:56:37;;;;;;;33.07;31.27;;;10.00;99.90;;;;;;5071818;28;20483;-76
2022/11/17 04:59:04;;;;;;;33.30;31.67;;;10.00;99.90;;;;;;5071928;28;20590;-76
2022/11/17 05:01:32;;;;;;;31.93;30.23;;;10.10;99.90;;;;;;5071834;28;20458;-75
2022/11/17 05:04:00;;;;;;;34.93;33.10;;;10.10;99.90;;;;;;5072089;28;20447;-76
2022/11/17 05:06:30;;;;;;;32.73;31.03;;;10.10;99.90;;;;;;5072060;28;20944;-75
2022/11/17 05:08:58;;;;;;;33.97;32.23;;;10.20;99.90;;;;;;5072139;28;20450;-74
2022/11/17 05:14:12;;;;;;;32.40;30.70;;;10.10;99.90;;;;;;5072119;28;20422;-74
2022/11/17 05:19:25;;;;;;;34.67;32.67;;;10.10;99.90;;;;;;5071622;28;20470;-75
2022/11/17 05:21:53;;;;;;;32.27;30.57;;;10.10;99.90;;;;;;5071594;28;20952;-76
2022/11/17 05:24:19;;;;;;;31.97;30.27;;;10.20;99.90;;;;;;5071573;28;20454;-76
2022/11/17 05:26:48;;;;;;;32.23;30.53;;;10.20;99.90;;;;;;5071627;28;20504;-77
2022/11/17 05:29:16;;;;;;;33.10;30.90;;;10.20;99.90;;;;;;5071510;28;20474;-77
2022/11/17 05:31:44;;;;;;;33.13;31.40;;;10.20;99.90;;;;;;5071659;28;20447;-78
2022/11/17 05:34:12;;;;;;;31.80;30.20;;;10.20;99.90;;;;;;5071692;28;20454;-78
2022/11/17 05:36:40;;;;;;;30.20;28.80;;;10.30;99.90;;;;;;5071689;28;20829;-76
2022/11/17 05:39:08;;;;;;;30.97;29.47;;;10.30;99.90;;;;;;5071174;28;20483;-76
2022/11/17 05:41:36;;;;;;;29.90;28.60;;;10.30;99.90;;;;;;5071256;28;20816;-77
2022/11/17 05:44:04;;;;;;;30.33;28.77;;;10.30;99.90;;;;;;5071214;28;20812;-77
2022/11/17 05:46:30;;;;;;;29.80;28.30;;;10.30;99.90;;;;;;5071150;28;20443;-77
2022/11/17 05:48:57;;;;;;;28.93;27.33;;;10.30;99.90;;;;;;5071374;28;20439;-77
2022/11/17 05:51:24;;;;;;;28.83;27.30;;;10.30;99.90;;;;;;5071199;28;20462;-77
2022/11/17 05:53:51;;;;;;;29.63;27.93;;;10.30;99.90;;;;;;5071115;28;20450;-78
2022/11/17 05:56:29;;;;;;;28.23;26.83;;;10.30;99.90;;;;;;5070863;28;21207;-79
2022/11/17 05:59:02;;;;;;;26.73;25.27;;;10.20;99.90;;;;;;5071193;28;20485;-78
2022/11/17 06:01:29;;;;;;;27.00;25.53;;;10.20;99.90;;;;;;5070472;28;20455;-76
2022/11/17 06:04:01;;;;;;;27.60;25.80;;;10.10;99.90;;;;;;5071175;28;20455;-78
2022/11/17 06:06:29;;;;;;;27.23;25.43;;;10.10;99.90;;;;;;5071034;28;20447;-83
2022/11/17 06:08:57;;;;;;;26.07;24.63;;;10.00;99.90;;;;;;5071199;28;20479;-82
2022/11/17 06:11:25;;;;;;;26.07;24.67;;;10.00;99.90;;;;;;5070629;28;20982;-81
2022/11/17 06:13:51;;;;;;;25.33;23.93;;;10.00;99.90;;;;;;5070752;28;20455;-82
2022/11/17 06:16:22;;;;;;;24.50;23.20;;;10.10;99.90;;;;;;5070843;28;20452;-81
2022/11/17 06:18:53;;;;;;;22.53;21.43;;;10.10;99.90;;;;;;5070611;28;20451;-79
2022/11/17 06:21:20;;;;;;;23.73;22.20;;;10.20;99.90;;;;;;5070807;28;20863;-79
2022/11/17 06:23:48;;;;;;;21.47;20.27;;;10.30;99.90;;;;;;5071420;28;20447;-79
2022/11/17 06:26:16;;;;;;;21.20;19.90;;;10.30;99.90;;;;;;5071396;28;20443;-78
2022/11/17 06:28:46;;;;;;;19.53;18.63;;;10.30;99.90;;;;;;5071491;28;20980;-80
2022/11/17 06:31:14;;;;;;;29.07;27.07;;;10.30;99.90;;;;;;5071199;28;20450;-79
2022/11/17 06:33:41;;;;;;;31.97;29.60;;;10.30;99.90;;;;;;5071612;28;20454;-80
2022/11/17 06:36:09;;;;;;;40.97;37.87;;;10.20;99.90;;;;;;5072270;28;20439;-81
2022/11/17 06:38:36;;;;;;;22.50;20.80;;;10.30;99.90;;;;;;5071828;28;20455;-81
2022/11/17 06:41:03;;;;;;;22.40;20.90;;;10.20;99.90;;;;;;5085164;28;20470;-81
2022/11/17 06:43:30;;;;;;;21.30;19.80;;;10.10;99.90;;;;;;5094003;28;20561;-81
2022/11/17 06:46:02;;;;;;;25.00;22.87;;;10.10;99.90;;;;;;5093552;28;20426;-80
2022/11/17 06:48:28;;;;;;;22.60;21.17;;;10.00;99.90;;;;;;5092373;28;20431;-79
2022/11/17 06:50:56;;;;;;;24.50;22.50;;;10.00;99.90;;;;;;5082815;28;20435;-80
2022/11/17 06:53:25;;;;;;;24.07;22.37;;;10.00;99.90;;;;;;5085181;28;20443;-80
2022/11/17 06:55:58;;;;;;;21.30;19.80;;;10.00;99.90;;;;;;5079829;28;20911;-81
2022/11/17 06:58:25;;;;;;;23.33;21.20;;;10.00;99.90;;;;;;5073638;28;20500;-79
2022/11/17 07:00:52;;;;;;;20.30;18.80;;;10.10;99.90;;;;;;5070338;28;20479;-77
2022/11/17 07:03:20;;;;;;;27.23;25.10;;;10.30;99.90;;;;;;5071495;28;20450;-83
2022/11/17 07:05:47;;;;;;;22.07;20.83;;;10.40;99.90;;;;;;5072503;28;20870;-82
2022/11/17 07:08:13;;;;;;;26.07;24.10;;;10.40;99.90;;;;;;5072812;28;20807;-78
2022/11/17 07:10:40;;;;;;;28.10;26.10;;;10.50;99.90;;;;;;5070867;28;20448;-78
2022/11/17 07:13:07;;;;;;;26.77;24.70;;;10.50;99.90;;;;;;5069156;28;20447;-87
2022/11/17 07:15:34;;;;;;;28.87;26.80;;;10.60;99.90;;;;;;5074239;28;20455;-82
2022/11/17 07:18:01;;;;;;;30.77;28.67;;;10.80;99.90;;;;;;5070288;28;20454;-78
2022/11/17 07:20:29;;;;;;;28.50;26.20;;;10.90;99.90;;;;;;5068607;28;20478;-81
2022/11/17 07:22:59;;;;;;;25.80;23.63;;;11.10;99.90;;;;;;5069076;28;20447;-81
2022/11/17 07:25:25;;;;;;;21.63;20.13;;;11.40;99.90;;;;;;5069834;28;20496;-75
2022/11/17 07:27:58;;;;;;;19.80;18.30;;;11.50;99.90;;;;;;5069680;28;20458;-76
2022/11/17 07:30:24;;;;;;;18.83;17.40;;;11.70;99.90;;;;;;5069236;28;20533;-77
2022/11/17 07:32:51;;;;;;;18.50;17.13;;;11.90;99.90;;;;;;5069730;28;20447;-77
2022/11/17 07:35:18;;;;;;;20.17;18.87;;;11.90;99.90;;;;;;5069626;28;20474;-77
2022/11/17 07:37:46;;;;;;;18.10;16.80;;;11.90;99.90;;;;;;5070671;28;20451;-77
2022/11/17 07:40:13;;;;;;;18.57;17.27;;;11.90;99.90;;;;;;5073694;28;20494;-77
2022/11/17 07:42:40;;;;;;;17.10;15.83;;;11.70;99.90;;;;;;5073610;28;20450;-78
2022/11/17 07:45:08;;;;;;;16.80;15.90;;;11.60;99.90;;;;;;5073413;28;20451;-78
2022/11/17 07:47:35;;;;;;;16.90;15.90;;;11.60;99.90;;;;;;5073509;28;20537;-78
2022/11/17 07:50:03;;;;;;;17.03;15.93;;;11.60;99.90;;;;;;5073685;28;20801;-78
2022/11/17 07:52:30;;;;;;;16.40;15.60;;;11.60;99.90;;;;;;5073499;28;20457;-78
2022/11/17 07:54:58;;;;;;;16.73;15.83;;;11.60;99.90;;;;;;5073366;28;20838;-78
2022/11/17 07:57:27;;;;;;;16.67;15.30;;;11.70;99.90;;;;;;5073541;28;20811;-80
2022/11/17 07:59:54;;;;;;;17.63;16.43;;;11.70;99.90;;;;;;5073343;28;20478;-80
2022/11/17 08:02:21;;;;;;;17.03;16.03;;;11.80;99.90;;;;;;5073241;28;20451;-79
2022/11/17 08:04:47;;;;;;;15.90;15.00;;;11.90;99.90;;;;;;5073310;28;20443;-80
2022/11/17 08:07:14;;;;;;;15.47;14.60;;;12.00;99.90;;;;;;5073177;28;20458;-77
2022/11/17 08:09:41;;;;;;;14.30;13.50;;;12.20;99.90;;;;;;5073418;28;20445;-78
2022/11/17 08:12:09;;;;;;;13.97;13.03;;;12.30;99.90;;;;;;5073029;28;20443;-78
2022/11/17 08:14:36;;;;;;;15.33;14.30;;;12.40;99.90;;;;;;5073128;28;20439;-78
2022/11/17 08:17:02;;;;;;;14.03;13.40;;;12.50;99.90;;;;;;5073036;28;20446;-78
2022/11/17 08:19:29;;;;;;;14.17;13.57;;;12.60;99.90;;;;;;5072945;28;20936;-77
2022/11/17 08:21:56;;;;;;;15.27;14.43;;;12.70;99.90;;;;;;5072814;28;20439;-77
2022/11/17 08:24:23;;;;;;;14.07;13.47;;;12.80;99.90;;;;;;5072814;28;20451;-78
2022/11/17 08:26:49;;;;;;;14.00;13.40;;;12.90;99.90;;;;;;5072925;28;20443;-79
2022/11/17 08:29:17;;;;;;;12.23;11.63;;;13.00;99.90;;;;;;5072754;28;20463;-79
2022/11/17 08:31:45;;;;;;;11.77;11.20;;;13.10;99.90;;;;;;5072908;28;20465;-80
2022/11/17 08:34:11;;;;;;;13.20;12.60;;;13.10;99.90;;;;;;5072943;28;20457;-79
2022/11/17 08:36:38;;;;;;;13.10;12.50;;;13.10;99.90;;;;;;5072773;28;20823;-79
2022/11/17 08:39:05;;;;;;;12.20;11.70;;;13.00;99.90;;;;;;5072669;28;20443;-79
2022/11/17 08:41:32;;;;;;;12.57;12.17;;;13.00;99.90;;;;;;5072691;28;20483;-79
2022/11/17 08:43:59;;;;;;;13.93;12.53;;;13.00;99.90;;;;;;5072962;28;20451;-77
2022/11/17 08:46:27;;;;;;;12.87;11.97;;;13.10;99.90;;;;;;5073038;28;20454;-75
2022/11/17 08:48:54;;;;;;;12.27;11.87;;;13.10;99.90;;;;;;5072146;28;20443;-75
2022/11/17 08:51:21;;;;;;;11.97;11.37;;;13.20;99.90;;;;;;5072541;28;20918;-77
2022/11/17 08:53:47;;;;;;;12.10;11.60;;;13.20;99.90;;;;;;5072419;28;20459;-76
2022/11/17 08:56:14;;;;;;;12.30;11.90;;;13.20;99.90;;;;;;5072212;28;20848;-79
2022/11/17 08:58:41;;;;;;;12.07;11.60;;;13.30;99.90;;;;;;5072353;28;20450;-79
2022/11/17 09:01:09;;;;;;;11.67;11.07;;;13.30;99.90;;;;;;5072185;28;20482;-76
2022/11/17 09:03:37;;;;;;;12.10;11.63;;;13.40;99.90;;;;;;5072218;28;20447;-78
2022/11/17 09:06:05;;;;;;;12.40;11.90;;;13.40;99.90;;;;;;5072065;28;20447;-76
2022/11/17 09:08:32;;;;;;;11.73;11.33;;;13.50;99.90;;;;;;5071984;28;20462;-76
2022/11/17 09:10:59;;;;;;;12.70;12.00;;;13.60;99.90;;;;;;5072156;28;20435;-76
2022/11/17 09:13:25;;;;;;;12.00;11.50;;;13.70;99.90;;;;;;5071845;28;20466;-78
2022/11/17 09:15:52;;;;;;;11.60;11.20;;;13.70;99.90;;;;;;5071831;28;20459;-77
2022/11/17 09:18:19;;;;;;;11.97;11.37;;;13.80;99.90;;;;;;5071906;28;20453;-76
2022/11/17 09:20:47;;;;;;;10.90;10.40;;;14.00;99.90;;;;;;5071645;28;20486;-76
2022/11/17 09:23:14;;;;;;;10.90;10.50;;;14.10;99.90;;;;;;5071564;28;20454;-77
2022/11/17 09:25:40;;;;;;;11.70;11.20;;;14.20;99.90;;;;;;5071737;28;20450;-77
2022/11/17 09:28:07;;;;;;;11.60;10.83;;;14.30;99.90;;;;;;5071457;28;20787;-76
2022/11/17 09:30:34;;;;;;;11.83;11.23;;;14.40;99.90;;;;;;5071187;28;20725;-77
2022/11/17 09:33:01;;;;;;;12.37;11.83;;;14.30;99.90;;;;;;5071290;28;20454;-77
2022/11/17 09:35:27;;;;;;;11.73;11.30;;;14.40;99.90;;;;;;5071280;28;20933;-77
2022/11/17 09:38:00;;;;;;;11.90;11.40;;;14.40;99.90;;;;;;5071210;28;20443;-77
2022/11/17 09:40:28;;;;;;;11.97;11.27;;;14.50;99.90;;;;;;5071286;28;20519;-78
2022/11/17 09:42:55;;;;;;;12.73;11.93;;;14.70;99.90;;;;;;5071160;28;20447;-77
2022/11/17 09:45:27;;;;;;;12.10;11.50;;;14.80;99.90;;;;;;5071126;28;20447;-78
2022/11/17 09:47:58;;;;;;;12.17;11.57;;;14.90;99.90;;;;;;5071316;28;20447;-77
2022/11/17 09:50:29;;;;;;;12.67;11.77;;;15.30;99.90;;;;;;5071119;28;20461;-77
2022/11/17 09:53:03;;;;;;;12.27;11.77;;;15.70;99.90;;;;;;5071177;28;20454;-77
2022/11/17 09:55:32;;;;;;;11.50;11.03;;;15.50;99.90;;;;;;5070759;28;20862;-78
2022/11/17 09:58:11;;;;;;;11.80;11.30;;;15.10;99.90;;;;;;5070992;28;20458;-78
2022/11/17 10:00:41;;;;;;;10.77;10.37;;;14.80;99.90;;;;;;5069927;28;20485;-78
2022/11/17 10:03:16;;;;;;;12.10;11.30;;;14.80;99.90;;;;;;5070657;28;20443;-77
2022/11/17 10:05:43;;;;;;;11.23;10.93;;;14.80;99.90;;;;;;5070743;28;20453;-77
2022/11/17 10:08:16;;;;;;;12.23;11.43;;;14.80;99.90;;;;;;5070597;28;20835;-78
2022/11/17 10:10:46;;;;;;;11.03;10.53;;;15.00;99.90;;;;;;5070613;28;20439;-77
2022/11/17 10:13:19;;;;;;;12.00;11.30;;;15.00;99.90;;;;;;5070496;28;20447;-76
2022/11/17 10:15:49;;;;;;;11.93;11.33;;;14.90;99.90;;;;;;5070395;28;20443;-78
2022/11/17 10:18:16;;;;;;;11.67;11.27;;;15.10;99.90;;;;;;5070360;28;20976;-77
2022/11/17 10:20:44;;;;;;;11.33;10.83;;;15.20;99.90;;;;;;5070530;28;20487;-76
2022/11/17 10:23:14;;;;;;;11.90;11.30;;;15.30;99.90;;;;;;5070507;28;20924;-76
2022/11/17 10:25:44;;;;;;;11.40;10.90;;;15.60;99.90;;;;;;5070539;28;20447;-77
2022/11/17 10:28:25;;;;;;;11.70;11.30;;;15.90;99.90;;;;;;5070447;28;20929;-76
2022/11/17 10:30:58;;;;;;;11.10;10.70;;;16.10;99.90;;;;;;5070418;28;20443;-76
2022/11/17 10:33:37;;;;;;;11.63;11.10;;;16.80;99.90;;;;;;5070492;28;20967;-76
2022/11/17 10:36:07;;;;;;;11.20;10.80;;;18.00;99.90;;;;;;5070101;28;20478;-79
2022/11/17 10:38:35;;;;;;;12.17;11.67;;;17.90;99.90;;;;;;5070092;28;20447;-78
2022/11/17 10:41:03;;;;;;;12.50;11.93;;;18.00;99.30;;;;;;5070009;28;21056;-76
2022/11/17 10:43:33;;;;;;;12.67;12.13;;;19.40;98.10;;;;;;5070309;28;20458;-76
2022/11/17 10:46:04;;;;;;;12.30;11.77;;;20.40;94.80;;;;;;5070365;28;20497;-75
2022/11/17 10:48:33;;;;;;;12.00;11.50;;;19.80;93.80;;;;;;5069960;28;20925;-76
2022/11/17 10:51:01;;;;;;;12.50;11.90;;;19.90;93.50;;;;;;5069951;28;20528;-76
2022/11/17 10:53:31;;;;;;;12.00;11.50;;;19.90;93.60;;;;;;5070083;28;20446;-76
2022/11/17 10:56:02;;;;;;;12.30;11.90;;;19.70;93.00;;;;;;5069986;28;20475;-76
2022/11/17 10:58:31;;;;;;;17.33;12.37;;;19.80;93.60;;;;;;5070145;28;20469;-75
2022/11/17 11:01:01;;;;;;;12.60;11.90;;;19.50;92.40;;;;;;5070260;28;20478;-76
2022/11/17 11:03:29;;;;;;;12.93;12.20;;;18.50;94.90;;;;;;5070170;28;20446;-77
2022/11/17 11:05:59;;;;;;;12.73;12.00;;;18.00;96.20;;;;;;5070041;28;20447;-78
2022/11/17 11:08:35;;;;;;;12.20;11.70;;;18.30;95.40;;;;;;5070053;28;20534;-77
2022/11/17 11:11:08;;;;;;;12.80;12.00;;;18.60;95.00;;;;;;5069764;28;20450;-78
2022/11/17 11:13:41;;;;;;;12.10;11.70;;;19.00;94.10;;;;;;5073613;28;20805;-78
2022/11/17 11:16:10;;;;;;;12.70;12.00;;;19.20;93.40;;;;;;5073961;28;20453;-78
2022/11/17 11:18:37;;;;;;;12.80;12.30;;;20.10;93.20;;;;;;5073974;28;20963;-77
2022/11/17 11:21:11;;;;;;;13.50;12.90;;;21.60;90.80;;;;;;5073798;28;20890;-78
2022/11/17 11:23:45;;;;;;;12.50;11.70;;;21.80;88.20;;;;;;5073757;28;20950;-78
2022/11/17 11:26:27;;;;;;;13.53;12.93;;;21.70;88.20;;;;;;5074051;28;20461;-78
2022/11/17 11:29:04;;;;;;;12.83;12.27;;;21.90;87.00;;;;;;5073854;28;20463;-76
2022/11/17 11:31:41;;;;;;;13.87;13.27;;;22.00;86.00;;;;;;5073824;28;20442;-76
2022/11/17 11:34:23;;;;;;;12.80;12.10;;;21.70;85.30;;;;;;5073852;28;20453;-76
2022/11/17 11:36:55;;;;;;;12.47;11.97;;;20.90;86.40;;;;;;5073665;28;20443;-76
2022/11/17 11:39:36;;;;;;;12.80;12.00;;;19.40;90.50;;;;;;5073558;28;20443;-76
2022/11/17 11:42:17;;;;;;;12.77;11.97;;;19.00;91.90;;;;;;5073440;28;20484;-77
2022/11/17 11:45:07;;;;;;;12.80;12.10;;;18.90;92.10;;;;;;5073660;28;20450;-77
2022/11/17 11:47:59;;;;;;;12.50;12.00;;;18.40;93.10;;;;;;5073351;28;20443;-77
2022/11/17 11:50:29;;;;;;;13.13;12.33;;;18.40;93.80;;;;;;5060789;28;20451;-77
2022/11/17 11:53:01;;;;;;;12.37;11.77;;;17.80;94.50;;;;;;5073456;28;20451;-77
2022/11/17 11:55:31;;;;;;;12.73;12.03;;;17.20;95.80;;;;;;5073239;28;20471;-77
2022/11/17 11:58:07;;;;;;;12.30;11.60;;;17.00;97.60;;;;;;5073283;28;20455;-79
2022/11/17 12:00:34;;;;;;;12.03;11.53;;;17.20;97.30;;;;;;5073202;28;20555;-77
2022/11/17 12:03:12;;;;;;;11.87;11.27;;;17.20;98.10;;;;;;5073085;28;20447;-77
2022/11/17 12:05:48;;;;;;;12.83;12.10;;;17.60;97.50;;;;;;5072962;28;20446;-79
2022/11/17 12:08:21;;;;;;;13.23;12.53;;;19.20;95.10;;;;;;5073004;28;20442;-78
2022/11/17 12:10:52;;;;;;;12.60;12.10;;;21.30;91.60;;;;;;5072706;28;21136;-78
2022/11/17 12:13:22;;;;;;;13.53;12.83;;;22.40;85.50;;;;;;5072880;28;20446;-77
2022/11/17 12:15:49;;;;;;;13.57;12.93;;;22.60;84.00;;;;;;5072882;28;21008;-76
2022/11/17 12:18:32;;;;;;;13.53;12.60;;;22.30;84.30;;;;;;5072919;28;20450;-76
2022/11/17 12:21:04;;;;;;;13.20;12.43;;;21.90;84.70;;;;;;5072792;28;21048;-76
2022/11/17 12:24:22;;;;;;;14.30;13.43;;;21.60;84.40;;;;;;5072021;28;20447;-76
2022/11/17 12:26:48;;;;;;;12.63;12.13;;;21.30;84.50;;;;;;4998474;28;20454;-77
2022/11/17 12:29:30;;;;;;;12.87;12.33;;;19.90;87.30;;;;;;5057491;28;20466;-77
2022/11/17 12:31:59;;;;;;;12.00;11.20;;;18.40;91.30;;;;;;5072803;28;20584;-79
2022/11/17 12:34:29;;;;;;;12.07;11.40;;;17.60;93.30;;;;;;5072798;28;20848;-79
2022/11/17 12:37:29;;;;;;;12.50;11.80;;;16.90;94.60;;;;;;5072540;28;20454;-78
2022/11/17 12:40:04;;;;;;;13.53;12.30;;;16.60;96.50;;;;;;5072290;28;20508;-78
2022/11/17 12:42:32;;;;;;;11.30;10.80;;;16.50;97.00;;;;;;5072252;28;20577;-78
2022/11/17 12:45:02;;;;;;;12.20;11.70;;;16.20;97.50;;;;;;5072407;28;20937;-80
2022/11/17 12:47:30;;;;;;;12.97;12.00;;;16.10;98.10;;;;;;5072347;28;20454;-79
2022/11/17 12:50:23;;;;;;;12.50;11.90;;;16.10;98.90;;;;;;5072404;28;20448;-77
2022/11/17 12:53:17;;;;;;;13.70;12.93;;;16.10;99.20;;;;;;5071935;28;20499;-78
2022/11/17 12:55:58;;;;;;;12.17;11.50;;;16.30;98.60;;;;;;5045198;28;21000;-82
2022/11/17 12:58:33;;;;;;;12.40;11.70;;;16.40;98.50;;;;;;5072303;28;20443;-79
2022/11/17 13:01:11;;;;;;;12.97;12.13;;;16.50;98.10;;;;;;5072952;28;20489;-80
2022/11/17 13:03:46;;;;;;;11.57;10.97;;;16.50;98.20;;;;;;5071899;28;21110;-79
2022/11/17 13:06:15;;;;;;;12.47;11.53;;;16.50;98.00;;;;;;5072121;28;20450;-80
2022/11/17 13:08:55;;;;;;;14.10;12.73;;;16.20;99.10;;;;;;5072195;28;20451;-79
2022/11/17 13:11:21;;;;;;;12.43;11.30;;;16.40;98.20;;;;;;5072013;28;20538;-78
2022/11/17 13:13:48;;;;;;;12.30;11.53;;;16.40;98.40;;;;;;5071742;28;20454;-79